createdAt,value
2023-05-01T00:01:36.731Z,9.96
2023-05-01T00:04:39.783Z,9.97
2023-05-01T00:07:41.472Z,9.95
2023-05-01T00:10:43.089Z,10.18
2023-05-01T00:13:44.721Z,10.22
2023-05-01T00:16:47.049Z,10.18
2023-05-01T00:19:52.957Z,10.22
2023-05-01T00:22:54.629Z,10.21
2023-05-01T00:25:56.310Z,10.18
2023-05-01T00:28:58.258Z,10.17
2023-05-01T00:32:00.284Z,10.10
2023-05-01T00:35:03.436Z,10.08
2023-05-01T00:38:05.347Z,10.05
2023-05-01T00:41:07.036Z,10.08
2023-05-01T00:44:08.964Z,10.12
2023-05-01T00:47:10.768Z,10.11
2023-05-01T00:50:14.052Z,10.06
2023-05-01T00:53:15.706Z,10.13
2023-05-01T00:56:17.444Z,10.10
2023-05-01T00:59:19.199Z,10.02
2023-05-01T01:02:20.856Z,10.05
2023-05-01T01:05:27.885Z,10.05
2023-05-01T01:08:33.029Z,10.01
2023-05-01T01:11:42.956Z,9.98
2023-05-01T01:14:50.995Z,9.90
2023-05-01T01:17:59.399Z,9.90
2023-05-01T01:21:12.496Z,9.87
2023-05-01T01:24:45.808Z,9.82
2023-05-01T01:28:05.488Z,9.81
2023-05-01T01:31:14.243Z,9.88
2023-05-01T01:34:20.873Z,9.81
2023-05-01T01:37:25.782Z,9.84
2023-05-01T01:40:35.078Z,9.85
2023-05-01T01:43:40.604Z,9.89
2023-05-01T01:46:43.158Z,9.93
2023-05-01T01:49:50.023Z,9.90
2023-05-01T01:52:54.476Z,9.87
2023-05-01T01:55:58.029Z,9.95
2023-05-01T01:59:01.957Z,9.84
2023-05-01T02:02:05.561Z,9.81
2023-05-01T02:05:14.746Z,9.75
2023-05-01T02:08:17.609Z,9.67
2023-05-01T02:11:21.786Z,9.59
2023-05-01T02:14:26.814Z,9.55
2023-05-01T02:17:30.093Z,9.51
2023-05-01T02:20:33.980Z,9.50
2023-05-01T02:23:36.263Z,9.44
2023-05-01T02:26:43.014Z,9.49
2023-05-01T02:29:44.841Z,9.43
2023-05-01T02:32:46.617Z,9.42
2023-05-01T02:35:49.717Z,9.35
2023-05-01T02:38:51.566Z,9.21
2023-05-01T02:41:57.236Z,9.18
2023-05-01T02:45:03.052Z,9.15
2023-05-01T02:48:06.802Z,9.13
2023-05-01T02:51:18.327Z,9.03
2023-05-01T02:54:20.785Z,8.89
2023-05-01T02:57:23.083Z,8.98
2023-05-01T03:00:24.886Z,8.96
2023-05-01T03:03:26.534Z,8.99
2023-05-01T03:06:29.829Z,8.97
2023-05-01T03:09:32.073Z,9.10
2023-05-01T03:12:34.168Z,9.05
2023-05-01T03:15:35.807Z,9.04
2023-05-01T03:18:37.840Z,9.10
2023-05-01T03:21:40.903Z,9.10
2023-05-01T03:24:42.663Z,9.13
2023-05-01T03:27:44.260Z,9.18
2023-05-01T03:30:45.911Z,9.07
2023-05-01T03:33:47.698Z,9.07
2023-05-01T03:36:50.716Z,9.12
2023-05-01T03:39:54.486Z,9.21
2023-05-01T03:42:56.348Z,9.17
2023-05-01T03:45:58.026Z,9.31
2023-05-01T03:48:59.660Z,9.28
2023-05-01T03:52:02.673Z,9.37
2023-05-01T03:55:05.221Z,9.44
2023-05-01T03:58:06.973Z,9.43
2023-05-01T04:01:08.567Z,9.46
2023-05-01T04:04:10.262Z,9.47
2023-05-01T04:07:13.970Z,9.46
2023-05-01T04:10:15.791Z,9.45
2023-05-01T04:13:17.573Z,9.46
2023-05-01T04:16:19.639Z,9.47
2023-05-01T04:19:21.354Z,9.48
2023-05-01T04:22:24.380Z,9.49
2023-05-01T04:25:26.427Z,9.59
2023-05-01T04:28:28.078Z,9.61
2023-05-01T04:31:30.008Z,9.61
2023-05-01T04:34:31.600Z,9.63
2023-05-01T04:37:34.809Z,9.73
2023-05-01T04:40:36.692Z,9.80
2023-05-01T04:43:38.319Z,9.84
2023-05-01T04:46:39.965Z,9.96
2023-05-01T04:49:41.567Z,10.05
2023-05-01T04:52:44.527Z,10.14
2023-05-01T04:55:46.668Z,10.21
2023-05-01T04:58:48.319Z,10.33
2023-05-01T05:01:49.974Z,10.35
2023-05-01T05:04:51.646Z,10.45
2023-05-01T05:07:54.663Z,10.52
2023-05-01T05:10:57.394Z,10.74
2023-05-01T05:13:59.058Z,10.76
2023-05-01T05:17:00.999Z,10.83
2023-05-01T05:20:02.997Z,10.89
2023-05-01T05:23:07.358Z,10.93
2023-05-01T05:26:09.921Z,10.97
2023-05-01T05:29:11.886Z,11.04
2023-05-01T05:32:13.787Z,11.15
2023-05-01T05:35:15.657Z,11.26
2023-05-01T05:38:20.618Z,11.34
2023-05-01T05:41:22.282Z,11.37
2023-05-01T05:44:23.863Z,11.43
2023-05-01T05:47:25.637Z,11.50
2023-05-01T05:50:27.310Z,11.61
2023-05-01T05:53:30.435Z,11.70
2023-05-01T05:56:32.421Z,11.77
2023-05-01T05:59:34.066Z,11.99
2023-05-01T06:02:36.343Z,12.01
2023-05-01T06:05:38.132Z,12.12
2023-05-01T06:08:41.140Z,12.21
2023-05-01T06:11:43.057Z,12.31
2023-05-01T06:14:44.907Z,12.48
2023-05-01T06:17:46.783Z,12.58
2023-05-01T06:20:48.545Z,12.70
2023-05-01T06:23:51.483Z,12.71
2023-05-01T06:26:53.116Z,12.85
2023-05-01T06:29:55.423Z,12.94
2023-05-01T06:32:57.546Z,12.93
2023-05-01T06:35:59.398Z,13.07
2023-05-01T06:39:02.547Z,13.24
2023-05-01T06:42:04.543Z,13.37
2023-05-01T06:45:12.302Z,13.28
2023-05-01T06:48:14.201Z,13.28
2023-05-01T06:51:15.968Z,13.44
2023-05-01T06:54:19.034Z,13.48
2023-05-01T06:57:20.606Z,13.68
2023-05-01T07:00:22.657Z,13.78
2023-05-01T07:03:24.417Z,13.84
2023-05-01T07:06:26.424Z,13.93
2023-05-01T07:09:29.755Z,14.11
2023-05-01T07:12:31.852Z,14.12
2023-05-01T07:15:33.634Z,14.20
2023-05-01T07:18:35.623Z,14.34
2023-05-01T07:21:37.344Z,14.46
2023-05-01T07:24:40.382Z,14.45
2023-05-01T07:27:42.477Z,14.43
2023-05-01T07:30:44.167Z,14.60
2023-05-01T07:33:45.858Z,14.66
2023-05-01T07:36:47.486Z,14.81
2023-05-01T07:39:50.492Z,14.99
2023-05-01T07:42:54.483Z,15.15
2023-05-01T07:45:57.651Z,15.16
2023-05-01T07:48:59.243Z,15.15
2023-05-01T07:52:00.872Z,15.26
2023-05-01T07:55:06.427Z,15.31
2023-05-01T07:58:08.096Z,15.38
2023-05-01T08:01:09.844Z,15.29
2023-05-01T08:04:11.743Z,15.40
2023-05-01T08:07:13.468Z,15.41
2023-05-01T08:10:16.868Z,15.57
2023-05-01T08:13:18.497Z,15.57
2023-05-01T08:16:22.030Z,15.63
2023-05-01T08:19:24.073Z,15.67
2023-05-01T08:22:25.793Z,15.71
2023-05-01T08:25:28.846Z,15.75
2023-05-01T08:28:30.478Z,15.80
2023-05-01T08:31:32.103Z,15.71
2023-05-01T08:34:33.941Z,15.83
2023-05-01T08:37:35.801Z,15.79
2023-05-01T08:40:40.757Z,15.86
2023-05-01T08:43:43.278Z,16.08
2023-05-01T08:46:47.820Z,16.12
2023-05-01T08:49:52.372Z,16.08
2023-05-01T08:52:54.829Z,16.17
2023-05-01T08:56:00.210Z,16.24
2023-05-01T08:59:04.463Z,16.29
2023-05-01T09:02:07.927Z,16.41
2023-05-01T09:05:10.547Z,16.41
2023-05-01T09:08:12.231Z,16.49
2023-05-01T09:11:15.348Z,16.48
2023-05-01T09:14:17.183Z,16.56
2023-05-01T09:17:20.457Z,16.62
2023-05-01T09:20:24.263Z,16.67
2023-05-01T09:23:25.954Z,16.78
2023-05-01T09:26:29.052Z,16.77
2023-05-01T09:29:38.770Z,16.84
2023-05-01T09:32:42.593Z,16.98
2023-05-01T09:35:52.104Z,17.08
2023-05-01T09:38:53.899Z,17.07
2023-05-01T09:41:56.961Z,17.12
2023-05-01T09:44:59.104Z,17.13
2023-05-01T09:48:08.466Z,17.17
2023-05-01T09:51:25.820Z,17.24
2023-05-01T09:54:27.484Z,17.17
2023-05-01T09:57:36.995Z,17.28
2023-05-01T10:00:48.370Z,17.47
2023-05-01T10:03:54.557Z,17.44
2023-05-01T10:06:56.619Z,17.49
2023-05-01T10:10:00.100Z,17.64
2023-05-01T10:13:15.031Z,17.64
2023-05-01T10:16:29.319Z,17.62
2023-05-01T10:19:31.101Z,17.68
2023-05-01T10:22:32.869Z,17.67
2023-05-01T10:25:36.741Z,17.62
2023-05-01T10:28:41.048Z,17.72
2023-05-01T10:31:43.282Z,17.69
2023-05-01T10:34:47.893Z,17.84
2023-05-01T10:37:56.587Z,17.87
2023-05-01T10:40:58.266Z,17.94
2023-05-01T10:44:22.848Z,17.96
2023-05-01T10:47:46.231Z,18.13
2023-05-01T10:51:09.696Z,18.14
2023-05-01T10:54:27.592Z,18.06
2023-05-01T10:57:43.104Z,18.13
2023-05-01T11:01:27.402Z,18.27
2023-05-01T11:04:47.951Z,18.35
2023-05-01T11:08:30.694Z,18.46
2023-05-01T11:11:48.254Z,18.51
2023-05-01T11:15:03.999Z,18.50
2023-05-01T11:18:07.116Z,18.48
2023-05-01T11:21:08.756Z,18.58
2023-05-01T11:24:10.410Z,18.55
2023-05-01T11:27:15.426Z,18.54
2023-05-01T11:30:17.225Z,18.58
2023-05-01T11:33:24.438Z,18.59
2023-05-01T11:36:26.792Z,18.67
2023-05-01T11:39:28.807Z,18.85
2023-05-01T11:42:30.466Z,18.96
2023-05-01T11:45:33.112Z,19.10
2023-05-01T11:48:36.565Z,19.18
2023-05-01T11:51:38.190Z,19.22
2023-05-01T11:54:48.018Z,19.39
2023-05-01T11:57:51.073Z,19.43
2023-05-01T12:00:53.976Z,19.52
2023-05-01T12:03:57.097Z,19.48
2023-05-01T12:06:58.620Z,19.53
2023-05-01T12:10:00.734Z,19.56
2023-05-01T12:13:03.149Z,19.49
2023-05-01T12:16:05.607Z,19.53
2023-05-01T12:19:09.385Z,19.65
2023-05-01T12:22:11.074Z,19.53
2023-05-01T12:25:13.686Z,19.51
2023-05-01T12:28:16.583Z,19.57
2023-05-01T12:31:19.691Z,19.62
2023-05-01T12:34:30.118Z,19.73
2023-05-01T12:37:32.359Z,19.81
2023-05-01T12:40:34.257Z,19.82
2023-05-01T12:43:37.436Z,19.77
2023-05-01T12:46:39.018Z,19.80
2023-05-01T12:49:42.416Z,19.90
2023-05-01T12:52:44.214Z,19.91
2023-05-01T12:55:47.685Z,19.89
2023-05-01T12:58:49.896Z,19.86
2023-05-01T13:01:58.672Z,19.72
2023-05-01T13:05:10.169Z,19.82
2023-05-01T13:08:11.794Z,19.82
2023-05-01T13:11:15.215Z,19.76
2023-05-01T13:14:50.475Z,19.80
2023-05-01T13:18:20.496Z,19.79
2023-05-01T13:21:24.094Z,19.83
2023-05-01T13:28:10.534Z,20.11
2023-05-01T13:31:13.375Z,20.13
2023-05-01T13:34:21.070Z,20.11
2023-05-01T13:37:24.573Z,20.24
2023-05-01T13:40:27.633Z,20.25
2023-05-01T13:43:29.688Z,20.29
2023-05-01T13:46:31.453Z,20.33
2023-05-01T13:49:33.265Z,20.40
2023-05-01T13:52:41.610Z,20.40
2023-05-01T13:55:43.288Z,20.41
2023-05-01T13:58:45.124Z,20.34
2023-05-01T14:01:46.794Z,20.44
2023-05-01T14:04:49.168Z,20.52
2023-05-01T14:07:55.248Z,20.64
2023-05-01T14:10:58.443Z,20.72
2023-05-01T14:13:59.898Z,20.76
2023-05-01T14:17:01.438Z,20.89
2023-05-01T14:20:04.158Z,20.84
2023-05-01T14:23:07.263Z,20.85
2023-05-01T14:26:09.495Z,20.83
2023-05-01T14:29:25.703Z,20.74
2023-05-01T14:32:27.717Z,20.69
2023-05-01T14:35:29.738Z,20.62
2023-05-01T14:38:32.865Z,20.65
2023-05-01T14:41:34.405Z,20.65
2023-05-01T14:44:39.221Z,20.73
2023-05-01T14:47:44.121Z,20.70
2023-05-01T14:50:46.072Z,20.78
2023-05-01T14:53:49.284Z,20.81
2023-05-01T14:56:51.198Z,20.78
2023-05-01T14:59:53.092Z,20.91
2023-05-01T15:02:55.112Z,20.85
2023-05-01T15:05:57.274Z,21.05
2023-05-01T15:09:00.482Z,20.92
2023-05-01T15:12:01.972Z,20.97
2023-05-01T15:15:03.591Z,21.00
2023-05-01T15:18:05.289Z,20.83
2023-05-01T15:21:06.980Z,20.87
2023-05-01T15:24:10.248Z,20.77
2023-05-01T15:27:14.498Z,20.61
2023-05-01T15:30:16.397Z,20.54
2023-05-01T15:33:19.317Z,20.34
2023-05-01T15:36:21.310Z,20.12
2023-05-01T15:39:24.426Z,20.11
2023-05-01T15:42:26.239Z,19.94
2023-05-01T15:45:27.948Z,19.88
2023-05-01T15:48:29.642Z,19.87
2023-05-01T15:51:31.267Z,19.85
2023-05-01T15:54:34.646Z,19.67
2023-05-01T15:57:36.290Z,19.63
2023-05-01T16:00:38.246Z,19.58
2023-05-01T16:03:45.021Z,19.48
2023-05-01T16:06:46.873Z,19.45
2023-05-01T16:09:50.014Z,19.43
2023-05-01T16:12:53.232Z,19.39
2023-05-01T16:15:55.018Z,19.38
2023-05-01T16:18:58.662Z,19.34
2023-05-01T16:22:03.044Z,19.21
2023-05-01T16:25:07.544Z,19.17
2023-05-01T16:28:09.235Z,19.06
2023-05-01T16:31:23.543Z,18.96
2023-05-01T16:34:28.933Z,18.91
2023-05-01T16:37:31.186Z,18.72
2023-05-01T16:40:36.317Z,18.69
2023-05-01T16:43:37.916Z,18.60
2023-05-01T16:46:40.800Z,18.55
2023-05-01T16:49:42.595Z,18.48
2023-05-01T16:52:44.269Z,18.39
2023-05-01T16:55:47.572Z,18.29
2023-05-01T16:58:49.592Z,18.19
2023-05-01T17:01:51.366Z,18.08
2023-05-01T17:04:53.442Z,17.96
2023-05-01T17:07:55.441Z,17.83
2023-05-01T17:10:58.520Z,17.68
2023-05-01T17:14:00.166Z,17.60
2023-05-01T17:17:01.847Z,17.45
2023-05-01T17:20:03.796Z,17.33
2023-05-01T17:23:05.833Z,17.18
2023-05-01T17:26:08.859Z,17.08
2023-05-01T17:29:11.124Z,16.97
2023-05-01T17:32:14.439Z,16.85
2023-05-01T17:35:20.316Z,16.70
2023-05-01T17:38:22.192Z,16.61
2023-05-01T17:41:25.268Z,16.52
2023-05-01T17:44:27.144Z,16.43
2023-05-01T17:47:29.216Z,16.31
2023-05-01T17:50:30.984Z,16.17
2023-05-01T17:53:32.717Z,16.06
2023-05-01T17:56:35.955Z,15.99
2023-05-01T17:59:38.398Z,15.88
2023-05-01T18:02:42.033Z,15.79
2023-05-01T18:05:44.029Z,15.69
2023-05-01T18:08:45.885Z,15.50
2023-05-01T18:11:49.960Z,15.44
2023-05-01T18:14:52.545Z,15.32
2023-05-01T18:17:54.954Z,15.26
2023-05-01T18:20:56.698Z,15.17
2023-05-01T18:23:59.513Z,15.06
2023-05-01T18:27:02.590Z,14.91
2023-05-01T18:30:05.666Z,14.82
2023-05-01T18:33:07.900Z,14.67
2023-05-01T18:36:10.088Z,14.54
2023-05-01T18:39:12.608Z,14.46
2023-05-01T18:42:16.078Z,14.36
2023-05-01T18:46:02.687Z,14.31
2023-05-01T18:48:55.966Z,14.27
2023-05-01T18:52:28.334Z,14.24
2023-05-01T18:55:30.493Z,14.20
2023-05-01T18:58:35.151Z,14.15
2023-05-01T19:01:37.227Z,14.14
2023-05-01T19:04:56.188Z,14.10
2023-05-01T19:07:59.941Z,14.11
2023-05-01T19:11:05.103Z,14.10
2023-05-01T19:14:09.055Z,14.08
2023-05-01T19:17:11.752Z,14.08
2023-05-01T19:20:14.059Z,14.14
2023-05-01T19:23:17.159Z,14.12
2023-05-01T19:26:19.483Z,14.10
2023-05-01T19:29:23.072Z,14.08
2023-05-01T19:32:25.762Z,14.08
2023-05-01T19:35:28.451Z,14.11
2023-05-01T19:38:30.749Z,14.19
2023-05-01T19:41:36.368Z,14.23
2023-05-01T19:44:40.559Z,14.25
2023-05-01T19:47:42.830Z,14.27
2023-05-01T19:50:48.245Z,14.23
2023-05-01T19:53:51.343Z,14.15
2023-05-01T19:56:53.219Z,14.09
2023-05-01T19:59:56.812Z,14.08
2023-05-01T20:02:58.663Z,13.98
2023-05-01T20:06:01.837Z,14.03
2023-05-01T20:09:03.778Z,14.00
2023-05-01T20:12:05.439Z,13.94
2023-05-01T20:15:10.974Z,13.84
2023-05-01T20:18:13.065Z,13.81
2023-05-01T20:21:15.071Z,13.76
2023-05-01T20:24:18.609Z,13.70
2023-05-01T20:27:20.758Z,13.69
2023-05-01T20:30:24.085Z,13.61
2023-05-01T20:33:26.082Z,13.58
2023-05-01T20:36:27.735Z,13.59
2023-05-01T20:39:29.966Z,13.48
2023-05-01T20:42:32.011Z,13.49
2023-05-01T20:45:35.464Z,13.42
2023-05-01T20:48:37.415Z,13.39
2023-05-01T20:51:39.133Z,13.34
2023-05-01T20:54:40.992Z,13.33
2023-05-01T20:57:42.883Z,13.34
2023-05-01T21:00:45.889Z,13.32
2023-05-01T21:03:47.605Z,13.34
2023-05-01T21:06:49.406Z,13.29
2023-05-01T21:09:51.165Z,13.22
2023-05-01T21:12:54.348Z,13.11
2023-05-01T21:15:57.624Z,13.14
2023-05-01T21:18:59.360Z,13.12
2023-05-01T21:22:01.049Z,13.05
2023-05-01T21:25:02.713Z,13.03
2023-05-01T21:28:04.792Z,12.99
2023-05-01T21:31:10.229Z,12.97
2023-05-01T21:34:12.818Z,12.98
2023-05-01T21:37:14.435Z,12.99
2023-05-01T21:40:16.132Z,12.92
2023-05-01T21:43:19.225Z,12.91
2023-05-01T21:46:22.268Z,12.91
2023-05-01T21:49:26.416Z,12.88
2023-05-01T21:52:29.039Z,12.89
2023-05-01T21:55:31.642Z,12.85
2023-05-01T21:58:33.284Z,12.84
2023-05-01T22:01:38.900Z,12.89
2023-05-01T22:04:40.714Z,12.85
2023-05-01T22:07:43.721Z,12.85
2023-05-01T22:10:45.468Z,12.87
2023-05-01T22:13:47.325Z,12.86
2023-05-01T22:16:50.895Z,12.90
2023-05-01T22:19:53.360Z,12.92
2023-05-01T22:22:55.292Z,12.89
2023-05-01T22:25:57.461Z,12.94
2023-05-01T22:28:59.330Z,12.86
2023-05-01T22:32:02.351Z,12.81
2023-05-01T22:35:04.725Z,12.73
2023-05-01T22:38:06.406Z,12.77
2023-05-01T22:41:08.503Z,12.70
2023-05-01T22:44:10.081Z,12.69
2023-05-01T22:47:13.051Z,12.64
2023-05-01T22:50:14.747Z,12.59
2023-05-01T22:53:16.626Z,12.54
2023-05-01T22:56:18.241Z,12.52
2023-05-01T22:59:20.197Z,12.52
2023-05-01T23:02:23.265Z,12.51
2023-05-01T23:05:25.162Z,12.45
2023-05-01T23:08:27.066Z,12.43
2023-05-01T23:11:30.944Z,12.37
2023-05-01T23:14:33.118Z,12.38
2023-05-01T23:17:36.050Z,12.31
2023-05-01T23:20:40.316Z,12.27
2023-05-01T23:23:42.485Z,12.18
2023-05-01T23:26:44.220Z,12.15
2023-05-01T23:29:53.037Z,12.10
2023-05-01T23:32:58.239Z,12.05
2023-05-01T23:36:00.483Z,12.04
2023-05-01T23:39:02.107Z,12.05
2023-05-01T23:42:03.940Z,12.09
2023-05-01T23:45:06.848Z,12.02
2023-05-01T23:48:10.432Z,12.04
2023-05-01T23:51:11.925Z,12.02
2023-05-01T23:54:13.538Z,12.05
2023-05-01T23:57:15.351Z,12.07
